createdAt,value
2019-02-15T16:03:12.305Z,25.97
2019-02-15T16:07:15.698Z,10.53
2019-02-15T16:11:19.100Z,4.35
2019-02-15T16:15:22.468Z,4.62
2019-02-15T16:19:25.865Z,7.25
2019-02-15T16:23:29.271Z,5.12
2019-02-15T16:27:32.658Z,7.70
2019-02-15T16:31:35.972Z,3.65
2019-02-15T16:35:39.342Z,5.53
2019-02-15T16:39:42.769Z,2.70
2019-02-15T16:43:46.162Z,1.98
2019-02-15T16:47:49.563Z,4.30
2019-02-15T16:51:52.985Z,1.87
2019-02-15T16:55:56.355Z,2.30
2019-02-15T16:59:59.751Z,6.00
2019-02-15T17:04:03.167Z,3.17
2019-02-15T17:08:06.566Z,2.80
2019-02-15T17:12:10.125Z,3.52
2019-02-15T17:16:13.490Z,1.77
2019-02-15T17:20:16.890Z,1.37
2019-02-15T17:24:20.311Z,4.35
2019-02-15T17:28:23.730Z,2.67
2019-02-15T17:32:27.136Z,3.12
2019-02-15T17:36:30.610Z,1.67
2019-02-15T17:40:33.992Z,5.85
2019-02-15T17:44:37.419Z,3.87
2019-02-15T17:48:40.851Z,4.20
2019-02-15T17:52:44.237Z,3.90
2019-02-15T17:56:47.617Z,2.30
2019-02-15T18:00:51.006Z,3.08
2019-02-15T18:04:54.405Z,4.72
2019-02-15T18:08:57.811Z,1.92
2019-02-15T18:13:01.205Z,2.17
2019-02-15T18:17:04.776Z,2.30
2019-02-15T18:21:08.188Z,4.58
2019-02-15T18:25:11.595Z,4.12
2019-02-15T18:29:15.008Z,6.35
2019-02-15T18:33:18.401Z,3.17
2019-02-15T18:37:21.765Z,3.37
2019-02-15T18:41:25.177Z,3.70
2019-02-15T18:45:28.583Z,3.37
2019-02-15T18:49:31.984Z,5.23
2019-02-15T18:53:35.386Z,3.98
2019-02-15T18:57:38.769Z,4.75
2019-02-15T19:01:42.150Z,3.70
2019-02-15T19:05:45.568Z,7.03
2019-02-15T19:09:49.052Z,3.40
2019-02-15T19:13:52.366Z,7.03
2019-02-15T19:17:55.741Z,14.47
2019-02-15T19:21:59.143Z,7.37
2019-02-15T19:26:05.005Z,5.70
2019-02-15T19:30:21.289Z,15.95
2019-02-15T19:34:24.679Z,14.83
2019-02-15T19:38:28.062Z,9.98
2019-02-15T19:42:31.486Z,8.40
2019-02-15T19:46:34.987Z,11.40
2019-02-15T19:50:39.343Z,5.10
2019-02-15T19:54:42.749Z,10.08
2019-02-15T19:58:46.130Z,4.20
2019-02-15T20:02:49.546Z,5.60
2019-02-15T20:06:52.944Z,7.65
2019-02-15T20:10:56.343Z,7.95
2019-02-15T20:14:59.735Z,5.37
2019-02-15T20:19:03.121Z,5.90
2019-02-15T20:23:06.527Z,10.53
2019-02-15T20:27:09.942Z,6.17
2019-02-15T20:31:13.351Z,7.10
2019-02-15T20:35:16.786Z,8.25
2019-02-15T20:39:20.139Z,6.37
2019-02-15T20:43:23.558Z,4.30
2019-02-15T20:47:26.937Z,4.90
2019-02-15T20:51:30.411Z,8.23
2019-02-15T20:55:33.810Z,9.33
2019-02-15T20:59:37.207Z,4.10
2019-02-15T21:03:40.610Z,9.57
2019-02-15T21:07:44.004Z,5.72
2019-02-15T21:11:47.413Z,6.75
2019-02-15T21:15:50.853Z,4.53
2019-02-15T21:19:54.279Z,4.35
2019-02-15T21:23:57.691Z,5.33
2019-02-15T21:28:01.104Z,6.35
2019-02-15T21:32:04.535Z,6.97
2019-02-15T21:36:08.053Z,8.00
2019-02-15T21:40:14.400Z,4.42
2019-02-15T21:44:17.803Z,6.28
2019-02-15T21:48:21.274Z,3.35
2019-02-15T21:52:24.669Z,10.98
2019-02-15T21:56:28.121Z,8.15
2019-02-15T22:00:31.512Z,5.80
2019-02-15T22:04:34.950Z,4.05
2019-02-15T22:08:38.388Z,8.38
2019-02-15T22:12:41.871Z,10.40
2019-02-15T22:16:45.261Z,13.55
2019-02-15T22:20:48.998Z,20.02
2019-02-15T22:24:52.371Z,12.55
2019-02-15T22:28:55.765Z,10.35
2019-02-15T22:32:59.194Z,9.70
2019-02-15T22:37:02.609Z,9.20
2019-02-15T22:41:12.068Z,10.58
2019-02-15T22:45:15.502Z,9.70
2019-02-15T22:49:18.899Z,8.28
2019-02-15T22:53:22.371Z,10.03
2019-02-15T22:57:25.778Z,9.25
2019-02-15T23:01:29.222Z,9.73
2019-02-15T23:05:32.631Z,12.65
2019-02-15T23:09:36.042Z,16.67
2019-02-15T23:13:39.927Z,12.30
2019-02-15T23:17:43.347Z,16.90
2019-02-15T23:21:47.117Z,13.68
2019-02-15T23:25:50.514Z,9.40
2019-02-15T23:29:53.920Z,10.13
2019-02-15T23:33:57.443Z,11.25
2019-02-15T23:38:00.816Z,11.65
2019-02-15T23:42:04.294Z,11.30
2019-02-15T23:46:07.665Z,13.70
2019-02-15T23:50:11.059Z,13.30
2019-02-15T23:54:14.460Z,10.32
2019-02-15T23:58:18.782Z,12.03
